sensor_id;sensor_type;location;lat;lon;timestamp;temperature;humidity
72712;SHT30;60828;40.292;17.998;2022-10-17T00:01:28;14.31;89.37
72712;SHT30;60828;40.292;17.998;2022-10-17T00:03:53;14.34;89.55
72712;SHT30;60828;40.292;17.998;2022-10-17T00:06:19;14.40;89.61
72712;SHT30;60828;40.292;17.998;2022-10-17T00:08:44;14.34;89.50
72712;SHT30;60828;40.292;17.998;2022-10-17T00:11:16;14.37;89.43
72712;SHT30;60828;40.292;17.998;2022-10-17T00:13:42;14.34;89.28
72712;SHT30;60828;40.292;17.998;2022-10-17T00:16:08;14.37;89.46
72712;SHT30;60828;40.292;17.998;2022-10-17T00:18:34;14.41;89.37
72712;SHT30;60828;40.292;17.998;2022-10-17T00:21:00;14.44;89.45
72712;SHT30;60828;40.292;17.998;2022-10-17T00:23:25;14.46;89.46
72712;SHT30;60828;40.292;17.998;2022-10-17T00:25:59;14.48;89.44
72712;SHT30;60828;40.292;17.998;2022-10-17T00:28:25;14.52;89.66
72712;SHT30;60828;40.292;17.998;2022-10-17T00:30:55;14.51;89.59
72712;SHT30;60828;40.292;17.998;2022-10-17T00:33:21;14.48;89.58
72712;SHT30;60828;40.292;17.998;2022-10-17T00:35:46;14.46;89.51
72712;SHT30;60828;40.292;17.998;2022-10-17T00:38:12;14.49;89.47
72712;SHT30;60828;40.292;17.998;2022-10-17T00:40:37;14.49;89.34
72712;SHT30;60828;40.292;17.998;2022-10-17T00:43:03;14.51;89.36
72712;SHT30;60828;40.292;17.998;2022-10-17T00:45:29;14.54;89.19
72712;SHT30;60828;40.292;17.998;2022-10-17T00:48:06;14.51;89.13
72712;SHT30;60828;40.292;17.998;2022-10-17T00:50:35;14.42;89.07
72712;SHT30;60828;40.292;17.998;2022-10-17T00:53:03;14.38;89.17
72712;SHT30;60828;40.292;17.998;2022-10-17T00:55:35;14.44;89.33
72712;SHT30;60828;40.292;17.998;2022-10-17T00:58:03;14.45;89.38
72712;SHT30;60828;40.292;17.998;2022-10-17T01:00:29;14.40;89.10
72712;SHT30;60828;40.292;17.998;2022-10-17T01:02:55;14.25;89.12
72712;SHT30;60828;40.292;17.998;2022-10-17T01:05:21;14.18;89.24
72712;SHT30;60828;40.292;17.998;2022-10-17T01:07:48;14.13;89.50
72712;SHT30;60828;40.292;17.998;2022-10-17T01:10:15;14.12;89.67
72712;SHT30;60828;40.292;17.998;2022-10-17T01:15:32;14.16;89.81
72712;SHT30;60828;40.292;17.998;2022-10-17T01:32:16;14.14;90.00
72712;SHT30;60828;40.292;17.998;2022-10-17T01:34:44;14.14;90.06
72712;SHT30;60828;40.292;17.998;2022-10-17T01:40:04;14.28;89.99
72712;SHT30;60828;40.292;17.998;2022-10-17T01:45:30;14.17;89.67
72712;SHT30;60828;40.292;17.998;2022-10-17T01:48:04;14.24;89.72
72712;SHT30;60828;40.292;17.998;2022-10-17T01:50:35;14.14;89.65
72712;SHT30;60828;40.292;17.998;2022-10-17T01:53:07;14.13;89.84
72712;SHT30;60828;40.292;17.998;2022-10-17T01:55:37;14.07;89.76
72712;SHT30;60828;40.292;17.998;2022-10-17T01:58:08;14.07;89.83
72712;SHT30;60828;40.292;17.998;2022-10-17T02:00:36;14.09;89.91
72712;SHT30;60828;40.292;17.998;2022-10-17T02:03:09;14.12;89.84
72712;SHT30;60828;40.292;17.998;2022-10-17T02:05:39;14.09;89.87
72712;SHT30;60828;40.292;17.998;2022-10-17T02:08:06;14.10;89.65
72712;SHT30;60828;40.292;17.998;2022-10-17T02:10:58;14.09;89.59
72712;SHT30;60828;40.292;17.998;2022-10-17T02:13:42;14.07;89.49
72712;SHT30;60828;40.292;17.998;2022-10-17T02:22:17;14.13;89.67
72712;SHT30;60828;40.292;17.998;2022-10-17T02:24:53;14.16;89.59
72712;SHT30;60828;40.292;17.998;2022-10-17T02:30:04;14.07;88.93
72712;SHT30;60828;40.292;17.998;2022-10-17T02:33:05;13.80;88.07
72712;SHT30;60828;40.292;17.998;2022-10-17T02:35:34;13.61;88.14
72712;SHT30;60828;40.292;17.998;2022-10-17T02:38:02;13.52;88.64
72712;SHT30;60828;40.292;17.998;2022-10-17T02:40:30;13.49;89.03
72712;SHT30;60828;40.292;17.998;2022-10-17T02:42:58;13.49;89.21
72712;SHT30;60828;40.292;17.998;2022-10-17T02:45:27;13.54;89.60
72712;SHT30;60828;40.292;17.998;2022-10-17T02:48:01;13.55;89.74
72712;SHT30;60828;40.292;17.998;2022-10-17T02:50:38;13.57;89.85
72712;SHT30;60828;40.292;17.998;2022-10-17T02:53:08;13.63;89.91
72712;SHT30;60828;40.292;17.998;2022-10-17T02:55:41;13.63;89.88
72712;SHT30;60828;40.292;17.998;2022-10-17T02:58:14;13.75;89.74
72712;SHT30;60828;40.292;17.998;2022-10-17T03:00:42;13.76;89.52
72712;SHT30;60828;40.292;17.998;2022-10-17T03:03:23;13.80;89.60
72712;SHT30;60828;40.292;17.998;2022-10-17T03:05:49;13.85;89.47
72712;SHT30;60828;40.292;17.998;2022-10-17T03:08:14;13.80;89.61
72712;SHT30;60828;40.292;17.998;2022-10-17T03:10:40;13.86;89.63
72712;SHT30;60828;40.292;17.998;2022-10-17T03:13:05;13.95;89.72
72712;SHT30;60828;40.292;17.998;2022-10-17T03:15:30;13.97;89.64
72712;SHT30;60828;40.292;17.998;2022-10-17T03:17:56;14.02;89.56
72712;SHT30;60828;40.292;17.998;2022-10-17T03:20:21;14.06;89.63
72712;SHT30;60828;40.292;17.998;2022-10-17T03:22:47;14.07;89.55
72712;SHT30;60828;40.292;17.998;2022-10-17T03:25:12;14.03;89.50
72712;SHT30;60828;40.292;17.998;2022-10-17T03:27:38;14.04;89.39
72712;SHT30;60828;40.292;17.998;2022-10-17T03:30:04;14.13;89.59
72712;SHT30;60828;40.292;17.998;2022-10-17T03:32:34;14.18;89.67
72712;SHT30;60828;40.292;17.998;2022-10-17T03:35:00;14.24;89.78
72712;SHT30;60828;40.292;17.998;2022-10-17T03:37:25;14.30;89.91
72712;SHT30;60828;40.292;17.998;2022-10-17T03:39:51;14.28;89.93
72712;SHT30;60828;40.292;17.998;2022-10-17T03:42:17;14.24;89.96
72712;SHT30;60828;40.292;17.998;2022-10-17T03:44:42;14.35;89.99
72712;SHT30;60828;40.292;17.998;2022-10-17T03:47:07;14.35;89.90
72712;SHT30;60828;40.292;17.998;2022-10-17T03:49:33;14.40;89.99
72712;SHT30;60828;40.292;17.998;2022-10-17T03:51:58;14.44;90.04
72712;SHT30;60828;40.292;17.998;2022-10-17T03:54:24;14.54;90.14
72712;SHT30;60828;40.292;17.998;2022-10-17T03:56:49;14.64;90.06
72712;SHT30;60828;40.292;17.998;2022-10-17T03:59:15;14.72;89.93
72712;SHT30;60828;40.292;17.998;2022-10-17T04:01:41;14.69;89.85
72712;SHT30;60828;40.292;17.998;2022-10-17T04:04:07;14.76;89.75
72712;SHT30;60828;40.292;17.998;2022-10-17T04:06:33;14.83;89.50
72712;SHT30;60828;40.292;17.998;2022-10-17T04:08:58;14.85;89.47
72712;SHT30;60828;40.292;17.998;2022-10-17T04:11:24;14.83;89.32
72712;SHT30;60828;40.292;17.998;2022-10-17T04:13:54;14.81;89.33
72712;SHT30;60828;40.292;17.998;2022-10-17T04:16:20;14.83;89.23
72712;SHT30;60828;40.292;17.998;2022-10-17T04:18:46;14.81;89.20
72712;SHT30;60828;40.292;17.998;2022-10-17T04:21:12;14.79;89.28
72712;SHT30;60828;40.292;17.998;2022-10-17T04:23:38;14.78;89.30
72712;SHT30;60828;40.292;17.998;2022-10-17T04:26:04;14.75;89.29
72712;SHT30;60828;40.292;17.998;2022-10-17T04:28:31;14.72;89.38
72712;SHT30;60828;40.292;17.998;2022-10-17T04:31:07;14.72;89.45
72712;SHT30;60828;40.292;17.998;2022-10-17T04:33:34;14.72;89.44
72712;SHT30;60828;40.292;17.998;2022-10-17T04:36:05;14.73;89.48
72712;SHT30;60828;40.292;17.998;2022-10-17T04:38:31;14.62;89.55
72712;SHT30;60828;40.292;17.998;2022-10-17T04:40:59;14.57;89.65
72712;SHT30;60828;40.292;17.998;2022-10-17T04:43:30;14.54;89.65
72712;SHT30;60828;40.292;17.998;2022-10-17T04:45:57;14.52;89.68
72712;SHT30;60828;40.292;17.998;2022-10-17T04:48:23;14.45;89.70
72712;SHT30;60828;40.292;17.998;2022-10-17T04:50:56;14.46;89.74
72712;SHT30;60828;40.292;17.998;2022-10-17T04:53:22;14.44;89.68
72712;SHT30;60828;40.292;17.998;2022-10-17T04:55:48;14.40;89.66
72712;SHT30;60828;40.292;17.998;2022-10-17T04:58:13;14.44;89.69
72712;SHT30;60828;40.292;17.998;2022-10-17T05:00:39;14.38;89.64
72712;SHT30;60828;40.292;17.998;2022-10-17T05:03:05;14.37;89.74
72712;SHT30;60828;40.292;17.998;2022-10-17T05:05:30;14.42;89.83
72712;SHT30;60828;40.292;17.998;2022-10-17T05:07:56;14.42;89.92
72712;SHT30;60828;40.292;17.998;2022-10-17T05:10:22;14.45;89.90
72712;SHT30;60828;40.292;17.998;2022-10-17T05:12:48;14.51;89.86
72712;SHT30;60828;40.292;17.998;2022-10-17T05:15:14;14.58;89.88
72712;SHT30;60828;40.292;17.998;2022-10-17T05:17:39;14.62;89.82
72712;SHT30;60828;40.292;17.998;2022-10-17T05:20:05;14.72;89.83
72712;SHT30;60828;40.292;17.998;2022-10-17T05:22:31;14.73;89.64
72712;SHT30;60828;40.292;17.998;2022-10-17T05:24:57;14.79;89.55
72712;SHT30;60828;40.292;17.998;2022-10-17T05:27:22;14.95;89.19
72712;SHT30;60828;40.292;17.998;2022-10-17T05:29:48;15.00;88.87
72712;SHT30;60828;40.292;17.998;2022-10-17T05:32:14;15.00;88.25
72712;SHT30;60828;40.292;17.998;2022-10-17T05:34:40;14.95;87.60
72712;SHT30;60828;40.292;17.998;2022-10-17T05:37:05;14.98;87.46
72712;SHT30;60828;40.292;17.998;2022-10-17T05:39:31;15.10;87.46
72712;SHT30;60828;40.292;17.998;2022-10-17T05:41:57;15.26;87.25
72712;SHT30;60828;40.292;17.998;2022-10-17T05:44:22;15.41;87.10
72712;SHT30;60828;40.292;17.998;2022-10-17T05:46:48;15.59;86.99
72712;SHT30;60828;40.292;17.998;2022-10-17T05:49:14;15.82;87.04
72712;SHT30;60828;40.292;17.998;2022-10-17T05:51:39;16.01;87.36
72712;SHT30;60828;40.292;17.998;2022-10-17T05:54:05;16.24;87.13
72712;SHT30;60828;40.292;17.998;2022-10-17T05:56:31;16.40;86.71
72712;SHT30;60828;40.292;17.998;2022-10-17T05:58:56;16.54;86.27
72712;SHT30;60828;40.292;17.998;2022-10-17T06:01:22;16.64;85.70
72712;SHT30;60828;40.292;17.998;2022-10-17T06:03:48;16.82;85.44
72712;SHT30;60828;40.292;17.998;2022-10-17T06:06:15;16.94;84.94
72712;SHT30;60828;40.292;17.998;2022-10-17T06:08:40;17.06;84.79
72712;SHT30;60828;40.292;17.998;2022-10-17T06:11:06;17.32;84.35
72712;SHT30;60828;40.292;17.998;2022-10-17T06:13:32;17.60;84.25
72712;SHT30;60828;40.292;17.998;2022-10-17T06:15:58;18.15;83.04
72712;SHT30;60828;40.292;17.998;2022-10-17T06:18:23;18.71;82.53
72712;SHT30;60828;40.292;17.998;2022-10-17T06:20:49;19.31;80.94
72712;SHT30;60828;40.292;17.998;2022-10-17T06:23:15;20.11;79.92
72712;SHT30;60828;40.292;17.998;2022-10-17T06:25:40;21.51;77.55
72712;SHT30;60828;40.292;17.998;2022-10-17T06:28:06;22.40;75.13
72712;SHT30;60828;40.292;17.998;2022-10-17T06:30:31;23.82;71.84
72712;SHT30;60828;40.292;17.998;2022-10-17T06:32:56;24.59;68.85
72712;SHT30;60828;40.292;17.998;2022-10-17T06:35:22;25.14;67.67
72712;SHT30;60828;40.292;17.998;2022-10-17T06:37:48;25.54;65.18
72712;SHT30;60828;40.292;17.998;2022-10-17T06:40:19;26.55;62.20
72712;SHT30;60828;40.292;17.998;2022-10-17T06:42:45;26.45;63.92
72712;SHT30;60828;40.292;17.998;2022-10-17T06:45:10;26.32;63.77
72712;SHT30;60828;40.292;17.998;2022-10-17T06:47:36;27.59;60.56
72712;SHT30;60828;40.292;17.998;2022-10-17T06:50:01;27.85;58.94
72712;SHT30;60828;40.292;17.998;2022-10-17T06:52:27;26.82;61.41
72712;SHT30;60828;40.292;17.998;2022-10-17T06:54:52;27.17;59.96
72712;SHT30;60828;40.292;17.998;2022-10-17T06:57:18;27.66;59.53
72712;SHT30;60828;40.292;17.998;2022-10-17T06:59:43;27.27;61.79
72712;SHT30;60828;40.292;17.998;2022-10-17T07:02:10;27.07;60.90
72712;SHT30;60828;40.292;17.998;2022-10-17T07:04:36;27.33;60.65
72712;SHT30;60828;40.292;17.998;2022-10-17T07:07:02;26.78;61.86
72712;SHT30;60828;40.292;17.998;2022-10-17T07:09:28;27.49;60.70
72712;SHT30;60828;40.292;17.998;2022-10-17T07:11:54;28.10;58.86
72712;SHT30;60828;40.292;17.998;2022-10-17T07:14:20;28.13;59.38
72712;SHT30;60828;40.292;17.998;2022-10-17T07:16:45;28.37;57.87
72712;SHT30;60828;40.292;17.998;2022-10-17T07:19:11;27.88;58.81
72712;SHT30;60828;40.292;17.998;2022-10-17T07:21:36;28.76;57.17
72712;SHT30;60828;40.292;17.998;2022-10-17T07:24:02;29.15;56.29
72712;SHT30;60828;40.292;17.998;2022-10-17T07:26:28;29.15;55.55
72712;SHT30;60828;40.292;17.998;2022-10-17T07:28:54;29.13;55.86
72712;SHT30;60828;40.292;17.998;2022-10-17T07:31:21;29.19;56.26
72712;SHT30;60828;40.292;17.998;2022-10-17T07:33:47;28.37;58.40
72712;SHT30;60828;40.292;17.998;2022-10-17T07:36:13;28.82;56.78
72712;SHT30;60828;40.292;17.998;2022-10-17T07:38:40;29.27;55.82
72712;SHT30;60828;40.292;17.998;2022-10-17T07:41:07;28.60;57.58
72712;SHT30;60828;40.292;17.998;2022-10-17T07:43:34;28.34;59.23
72712;SHT30;60828;40.292;17.998;2022-10-17T07:46:01;28.64;58.64
72712;SHT30;60828;40.292;17.998;2022-10-17T07:48:27;28.34;59.86
72712;SHT30;60828;40.292;17.998;2022-10-17T07:50:52;28.47;59.59
72712;SHT30;60828;40.292;17.998;2022-10-17T07:53:18;28.40;59.93
72712;SHT30;60828;40.292;17.998;2022-10-17T07:55:44;28.39;58.27
72712;SHT30;60828;40.292;17.998;2022-10-17T07:58:11;28.67;58.18
72712;SHT30;60828;40.292;17.998;2022-10-17T08:00:37;27.24;61.21
72712;SHT30;60828;40.292;17.998;2022-10-17T08:03:03;27.15;62.75
72712;SHT30;60828;40.292;17.998;2022-10-17T08:05:29;26.10;64.81
72712;SHT30;60828;40.292;17.998;2022-10-17T08:07:55;25.24;67.31
72712;SHT30;60828;40.292;17.998;2022-10-17T08:10:20;24.71;69.53
72712;SHT30;60828;40.292;17.998;2022-10-17T08:12:47;24.90;68.12
72712;SHT30;60828;40.292;17.998;2022-10-17T08:15:18;25.26;67.63
72712;SHT30;60828;40.292;17.998;2022-10-17T08:30:11;24.02;71.29
72712;SHT30;60828;40.292;17.998;2022-10-17T08:32:37;23.49;72.49
72712;SHT30;60828;40.292;17.998;2022-10-17T08:35:08;23.26;73.43
72712;SHT30;60828;40.292;17.998;2022-10-17T08:37:34;23.40;72.96
72712;SHT30;60828;40.292;17.998;2022-10-17T08:39:59;23.34;72.61
72712;SHT30;60828;40.292;17.998;2022-10-17T08:47:51;26.83;63.45
72712;SHT30;60828;40.292;17.998;2022-10-17T08:53:38;27.26;60.77
72712;SHT30;60828;40.292;17.998;2022-10-17T08:55:49;26.31;64.15
72712;SHT30;60828;40.292;17.998;2022-10-17T08:58:24;26.31;64.18
72712;SHT30;60828;40.292;17.998;2022-10-17T09:01:06;27.70;61.00
72712;SHT30;60828;40.292;17.998;2022-10-17T09:03:45;27.06;62.46
72712;SHT30;60828;40.292;17.998;2022-10-17T09:06:24;28.54;58.30
72712;SHT30;60828;40.292;17.998;2022-10-17T09:09:31;28.05;57.09
72712;SHT30;60828;40.292;17.998;2022-10-17T09:12:33;27.89;56.20
72712;SHT30;60828;40.292;17.998;2022-10-17T09:17:55;25.29;64.76
72712;SHT30;60828;40.292;17.998;2022-10-17T09:20:22;26.38;62.27
72712;SHT30;60828;40.292;17.998;2022-10-17T09:22:55;26.80;61.34
72712;SHT30;60828;40.292;17.998;2022-10-17T09:25:22;26.25;62.04
72712;SHT30;60828;40.292;17.998;2022-10-17T09:28:05;25.77;63.57
72712;SHT30;60828;40.292;17.998;2022-10-17T09:33:00;25.28;65.07
72712;SHT30;60828;40.292;17.998;2022-10-17T09:35:33;25.33;64.93
72712;SHT30;60828;40.292;17.998;2022-10-17T09:38:02;24.61;66.45
72712;SHT30;60828;40.292;17.998;2022-10-17T09:40:31;24.71;66.89
72712;SHT30;60828;40.292;17.998;2022-10-17T09:43:37;24.39;66.74
72712;SHT30;60828;40.292;17.998;2022-10-17T09:46:34;24.80;66.24
72712;SHT30;60828;40.292;17.998;2022-10-17T09:49:09;24.37;66.84
72712;SHT30;60828;40.292;17.998;2022-10-17T09:51:36;23.40;68.59
72712;SHT30;60828;40.292;17.998;2022-10-17T09:54:19;24.21;67.63
72712;SHT30;60828;40.292;17.998;2022-10-17T09:57:06;23.92;67.96
72712;SHT30;60828;40.292;17.998;2022-10-17T09:59:41;23.74;68.86
72712;SHT30;60828;40.292;17.998;2022-10-17T10:02:13;23.97;67.96
72712;SHT30;60828;40.292;17.998;2022-10-17T10:05:00;23.30;69.71
72712;SHT30;60828;40.292;17.998;2022-10-17T10:07:28;22.84;71.27
72712;SHT30;60828;40.292;17.998;2022-10-17T10:09:54;22.69;71.39
72712;SHT30;60828;40.292;17.998;2022-10-17T10:14:45;23.49;69.68
72712;SHT30;60828;40.292;17.998;2022-10-17T10:19:57;23.81;69.11
72712;SHT30;60828;40.292;17.998;2022-10-17T10:22:24;23.75;68.35
72712;SHT30;60828;40.292;17.998;2022-10-17T10:25:15;23.17;69.16
72712;SHT30;60828;40.292;17.998;2022-10-17T10:27:43;23.54;69.27
72712;SHT30;60828;40.292;17.998;2022-10-17T10:30:21;23.16;69.84
72712;SHT30;60828;40.292;17.998;2022-10-17T10:32:48;23.43;69.01
72712;SHT30;60828;40.292;17.998;2022-10-17T10:35:20;23.26;69.11
72712;SHT30;60828;40.292;17.998;2022-10-17T10:37:54;23.16;69.81
72712;SHT30;60828;40.292;17.998;2022-10-17T10:40:30;23.15;68.63
72712;SHT30;60828;40.292;17.998;2022-10-17T10:42:58;22.99;70.37
72712;SHT30;60828;40.292;17.998;2022-10-17T10:48:36;24.01;66.56
72712;SHT30;60828;40.292;17.998;2022-10-17T10:51:09;23.60;69.07
72712;SHT30;60828;40.292;17.998;2022-10-17T10:53:44;23.27;69.83
72712;SHT30;60828;40.292;17.998;2022-10-17T10:56:26;23.06;69.26
72712;SHT30;60828;40.292;17.998;2022-10-17T11:01:57;24.52;65.72
72712;SHT30;60828;40.292;17.998;2022-10-17T11:04:39;24.15;66.53
72712;SHT30;60828;40.292;17.998;2022-10-17T11:07:19;23.58;68.16
72712;SHT30;60828;40.292;17.998;2022-10-17T11:15:19;23.65;67.76
72712;SHT30;60828;40.292;17.998;2022-10-17T11:18:05;24.49;65.51
72712;SHT30;60828;40.292;17.998;2022-10-17T11:23:24;24.57;65.31
72712;SHT30;60828;40.292;17.998;2022-10-17T11:25:52;24.46;65.80
72712;SHT30;60828;40.292;17.998;2022-10-17T11:28:19;24.48;65.62
72712;SHT30;60828;40.292;17.998;2022-10-17T11:31:03;24.73;65.58
72712;SHT30;60828;40.292;17.998;2022-10-17T11:33:33;25.08;64.13
72712;SHT30;60828;40.292;17.998;2022-10-17T11:36:02;24.99;65.31
72712;SHT30;60828;40.292;17.998;2022-10-17T11:38:48;23.53;67.77
72712;SHT30;60828;40.292;17.998;2022-10-17T11:41:20;24.22;66.11
72712;SHT30;60828;40.292;17.998;2022-10-17T11:43:49;24.49;65.82
72712;SHT30;60828;40.292;17.998;2022-10-17T11:46:17;24.37;65.17
72712;SHT30;60828;40.292;17.998;2022-10-17T11:48:48;24.08;64.81
72712;SHT30;60828;40.292;17.998;2022-10-17T11:51:16;24.25;65.58
72712;SHT30;60828;40.292;17.998;2022-10-17T11:56:10;23.85;65.62
72712;SHT30;60828;40.292;17.998;2022-10-17T12:01:26;23.91;66.87
72712;SHT30;60828;40.292;17.998;2022-10-17T12:06:44;23.57;67.75
72712;SHT30;60828;40.292;17.998;2022-10-17T12:16:49;22.88;70.02
72712;SHT30;60828;40.292;17.998;2022-10-17T12:19:24;22.98;68.92
72712;SHT30;60828;40.292;17.998;2022-10-17T12:22:37;23.26;68.30
72712;SHT30;60828;40.292;17.998;2022-10-17T12:24:39;23.47;68.88
72712;SHT30;60828;40.292;17.998;2022-10-17T12:29:57;23.27;69.65
72712;SHT30;60828;40.292;17.998;2022-10-17T12:32:23;22.94;69.78
72712;SHT30;60828;40.292;17.998;2022-10-17T12:34:52;23.16;69.47
72712;SHT30;60828;40.292;17.998;2022-10-17T12:40:21;23.97;66.81
72712;SHT30;60828;40.292;17.998;2022-10-17T12:42:49;24.32;65.91
72712;SHT30;60828;40.292;17.998;2022-10-17T12:46:00;24.26;66.00
72712;SHT30;60828;40.292;17.998;2022-10-17T12:48:00;24.08;67.46
72712;SHT30;60828;40.292;17.998;2022-10-17T12:53:10;23.67;67.84
72712;SHT30;60828;40.292;17.998;2022-10-17T12:55:40;23.36;69.09
72712;SHT30;60828;40.292;17.998;2022-10-17T12:58:10;22.92;69.95
72712;SHT30;60828;40.292;17.998;2022-10-17T13:00:36;23.23;69.83
72712;SHT30;60828;40.292;17.998;2022-10-17T13:05:34;22.92;70.81
72712;SHT30;60828;40.292;17.998;2022-10-17T13:08:01;23.03;69.67
72712;SHT30;60828;40.292;17.998;2022-10-17T13:10:28;23.22;69.29
72712;SHT30;60828;40.292;17.998;2022-10-17T13:15:29;23.09;70.30
72712;SHT30;60828;40.292;17.998;2022-10-17T13:17:55;22.88;70.36
72712;SHT30;60828;40.292;17.998;2022-10-17T13:20:22;23.17;69.34
72712;SHT30;60828;40.292;17.998;2022-10-17T13:22:50;23.00;68.88
72712;SHT30;60828;40.292;17.998;2022-10-17T13:25:16;23.31;68.29
72712;SHT30;60828;40.292;17.998;2022-10-17T13:27:42;23.42;68.36
72712;SHT30;60828;40.292;17.998;2022-10-17T13:30:24;23.47;67.91
72712;SHT30;60828;40.292;17.998;2022-10-17T13:32:49;23.60;68.77
72712;SHT30;60828;40.292;17.998;2022-10-17T13:35:20;23.53;68.30
72712;SHT30;60828;40.292;17.998;2022-10-17T13:37:46;23.31;68.80
72712;SHT30;60828;40.292;17.998;2022-10-17T13:40:16;23.29;68.51
72712;SHT30;60828;40.292;17.998;2022-10-17T13:42:41;23.42;68.95
72712;SHT30;60828;40.292;17.998;2022-10-17T13:45:12;23.44;68.90
72712;SHT30;60828;40.292;17.998;2022-10-17T13:47:40;23.44;69.34
72712;SHT30;60828;40.292;17.998;2022-10-17T13:50:06;23.51;68.85
72712;SHT30;60828;40.292;17.998;2022-10-17T13:52:32;23.49;69.65
72712;SHT30;60828;40.292;17.998;2022-10-17T13:55:16;23.27;69.56
72712;SHT30;60828;40.292;17.998;2022-10-17T13:57:44;22.67;71.15
72712;SHT30;60828;40.292;17.998;2022-10-17T14:00:19;22.84;71.46
72712;SHT30;60828;40.292;17.998;2022-10-17T14:02:46;23.19;70.03
72712;SHT30;60828;40.292;17.998;2022-10-17T14:05:16;23.05;69.98
72712;SHT30;60828;40.292;17.998;2022-10-17T14:07:44;23.00;70.44
72712;SHT30;60828;40.292;17.998;2022-10-17T14:12:53;22.92;70.57
72712;SHT30;60828;40.292;17.998;2022-10-17T14:15:20;22.88;70.66
72712;SHT30;60828;40.292;17.998;2022-10-17T14:17:52;22.89;70.89
72712;SHT30;60828;40.292;17.998;2022-10-17T14:20:18;22.54;71.81
72712;SHT30;60828;40.292;17.998;2022-10-17T14:22:45;22.58;72.52
72712;SHT30;60828;40.292;17.998;2022-10-17T14:27:56;22.48;72.52
72712;SHT30;60828;40.292;17.998;2022-10-17T14:30:31;22.33;73.18
72712;SHT30;60828;40.292;17.998;2022-10-17T14:32:57;22.25;73.37
72712;SHT30;60828;40.292;17.998;2022-10-17T14:35:22;22.32;72.12
72712;SHT30;60828;40.292;17.998;2022-10-17T14:37:49;22.23;72.57
72712;SHT30;60828;40.292;17.998;2022-10-17T14:40:16;22.17;73.17
72712;SHT30;60828;40.292;17.998;2022-10-17T14:42:42;22.33;73.27
72712;SHT30;60828;40.292;17.998;2022-10-17T14:45:11;22.27;73.66
72712;SHT30;60828;40.292;17.998;2022-10-17T14:47:37;22.30;73.46
72712;SHT30;60828;40.292;17.998;2022-10-17T14:50:04;22.12;73.64
72712;SHT30;60828;40.292;17.998;2022-10-17T14:52:30;22.09;74.24
72712;SHT30;60828;40.292;17.998;2022-10-17T14:54:57;22.00;74.91
72712;SHT30;60828;40.292;17.998;2022-10-17T14:57:23;21.90;75.19
72712;SHT30;60828;40.292;17.998;2022-10-17T14:59:50;22.02;74.96
72712;SHT30;60828;40.292;17.998;2022-10-17T15:02:15;22.06;74.42
72712;SHT30;60828;40.292;17.998;2022-10-17T15:04:41;21.78;74.66
72712;SHT30;60828;40.292;17.998;2022-10-17T15:07:09;21.71;74.98
72712;SHT30;60828;40.292;17.998;2022-10-17T15:09:36;21.51;75.11
72712;SHT30;60828;40.292;17.998;2022-10-17T15:12:02;21.55;75.57
72712;SHT30;60828;40.292;17.998;2022-10-17T15:14:28;21.49;76.03
72712;SHT30;60828;40.292;17.998;2022-10-17T15:16:53;21.35;76.69
72712;SHT30;60828;40.292;17.998;2022-10-17T15:19:18;21.24;77.09
72712;SHT30;60828;40.292;17.998;2022-10-17T15:21:44;21.23;77.58
72712;SHT30;60828;40.292;17.998;2022-10-17T15:24:09;21.15;77.86
72712;SHT30;60828;40.292;17.998;2022-10-17T15:26:34;21.04;78.22
72712;SHT30;60828;40.292;17.998;2022-10-17T15:29:00;20.93;78.71
72712;SHT30;60828;40.292;17.998;2022-10-17T15:31:26;20.87;78.99
72712;SHT30;60828;40.292;17.998;2022-10-17T15:33:52;20.86;79.25
72712;SHT30;60828;40.292;17.998;2022-10-17T15:36:19;20.73;79.69
72712;SHT30;60828;40.292;17.998;2022-10-17T15:38:45;20.61;79.77
72712;SHT30;60828;40.292;17.998;2022-10-17T15:41:10;20.55;79.92
72712;SHT30;60828;40.292;17.998;2022-10-17T15:43:36;20.52;80.18
72712;SHT30;60828;40.292;17.998;2022-10-17T15:46:01;20.38;80.63
72712;SHT30;60828;40.292;17.998;2022-10-17T15:48:27;20.29;80.75
72712;SHT30;60828;40.292;17.998;2022-10-17T15:50:53;20.28;80.89
72712;SHT30;60828;40.292;17.998;2022-10-17T15:53:19;20.21;80.97
72712;SHT30;60828;40.292;17.998;2022-10-17T15:55:44;20.11;81.28
72712;SHT30;60828;40.292;17.998;2022-10-17T15:58:11;19.98;81.53
72712;SHT30;60828;40.292;17.998;2022-10-17T16:00:39;19.98;81.59
72712;SHT30;60828;40.292;17.998;2022-10-17T16:03:04;19.90;81.91
72712;SHT30;60828;40.292;17.998;2022-10-17T16:05:29;19.87;82.03
72712;SHT30;60828;40.292;17.998;2022-10-17T16:07:55;19.71;82.37
72712;SHT30;60828;40.292;17.998;2022-10-17T16:10:21;19.71;82.47
72712;SHT30;60828;40.292;17.998;2022-10-17T16:12:47;19.71;82.62
72712;SHT30;60828;40.292;17.998;2022-10-17T16:17:39;19.60;82.98
72712;SHT30;60828;40.292;17.998;2022-10-17T16:20:05;19.51;83.24
72712;SHT30;60828;40.292;17.998;2022-10-17T16:22:31;19.41;83.35
72712;SHT30;60828;40.292;17.998;2022-10-17T16:24:57;19.38;83.57
72712;SHT30;60828;40.292;17.998;2022-10-17T16:27:31;19.38;83.72
72712;SHT30;60828;40.292;17.998;2022-10-17T16:29:56;19.36;83.80
72712;SHT30;60828;40.292;17.998;2022-10-17T16:32:22;19.42;83.71
72712;SHT30;60828;40.292;17.998;2022-10-17T16:34:47;19.42;83.72
72712;SHT30;60828;40.292;17.998;2022-10-17T16:37:12;19.42;83.76
72712;SHT30;60828;40.292;17.998;2022-10-17T16:39:38;19.42;83.87
72712;SHT30;60828;40.292;17.998;2022-10-17T16:42:03;19.39;83.85
72712;SHT30;60828;40.292;17.998;2022-10-17T16:44:28;19.48;83.88
72712;SHT30;60828;40.292;17.998;2022-10-17T16:46:53;19.48;83.86
72712;SHT30;60828;40.292;17.998;2022-10-17T16:49:19;19.39;84.03
72712;SHT30;60828;40.292;17.998;2022-10-17T16:51:44;19.29;84.14
72712;SHT30;60828;40.292;17.998;2022-10-17T16:54:10;19.22;84.35
72712;SHT30;60828;40.292;17.998;2022-10-17T16:56:35;19.21;84.45
72712;SHT30;60828;40.292;17.998;2022-10-17T16:59:00;19.11;84.61
72712;SHT30;60828;40.292;17.998;2022-10-17T17:01:26;19.14;84.53
72712;SHT30;60828;40.292;17.998;2022-10-17T17:03:53;19.10;84.52
72712;SHT30;60828;40.292;17.998;2022-10-17T17:06:20;19.04;84.84
72712;SHT30;60828;40.292;17.998;2022-10-17T17:08:45;18.98;84.92
72712;SHT30;60828;40.292;17.998;2022-10-17T17:11:11;18.98;84.90
72712;SHT30;60828;40.292;17.998;2022-10-17T17:13:37;18.98;84.83
72712;SHT30;60828;40.292;17.998;2022-10-17T17:16:03;18.97;84.96
72712;SHT30;60828;40.292;17.998;2022-10-17T17:18:29;18.94;84.93